sensor_id;sensor_type;location;lat;lon;timestamp;P1;durP1;ratioP1;P2;durP2;ratioP2
28760;SDS011;15917;50.014;8.352;2023-03-23T00:02:28;1.67;;;0.98;;
28760;SDS011;15917;50.014;8.352;2023-03-23T00:04:58;5.60;;;0.90;;
28760;SDS011;15917;50.014;8.352;2023-03-23T00:09:52;1.05;;;0.70;;
28760;SDS011;15917;50.014;8.352;2023-03-23T00:12:21;3.17;;;0.90;;
28760;SDS011;15917;50.014;8.352;2023-03-23T00:14:57;2.72;;;0.70;;
28760;SDS011;15917;50.014;8.352;2023-03-23T00:17:23;7.03;;;1.10;;
28760;SDS011;15917;50.014;8.352;2023-03-23T00:19:49;1.50;;;0.80;;
28760;SDS011;15917;50.014;8.352;2023-03-23T00:22:16;2.40;;;0.70;;
28760;SDS011;15917;50.014;8.352;2023-03-23T00:24:44;2.13;;;0.70;;
28760;SDS011;15917;50.014;8.352;2023-03-23T00:27:10;3.70;;;0.77;;
28760;SDS011;15917;50.014;8.352;2023-03-23T00:29:37;6.18;;;0.80;;
28760;SDS011;15917;50.014;8.352;2023-03-23T00:32:03;2.85;;;0.82;;
28760;SDS011;15917;50.014;8.352;2023-03-23T00:34:31;1.83;;;0.85;;
28760;SDS011;15917;50.014;8.352;2023-03-23T00:36:58;3.35;;;0.93;;
28760;SDS011;15917;50.014;8.352;2023-03-23T00:39:27;2.60;;;0.70;;
28760;SDS011;15917;50.014;8.352;2023-03-23T00:41:53;1.13;;;0.70;;
28760;SDS011;15917;50.014;8.352;2023-03-23T00:44:29;5.50;;;1.02;;
28760;SDS011;15917;50.014;8.352;2023-03-23T00:46:56;1.73;;;0.50;;
28760;SDS011;15917;50.014;8.352;2023-03-23T00:49:24;1.60;;;0.85;;
28760;SDS011;15917;50.014;8.352;2023-03-23T00:54:22;1.58;;;0.63;;
28760;SDS011;15917;50.014;8.352;2023-03-23T00:56:48;4.50;;;0.70;;
28760;SDS011;15917;50.014;8.352;2023-03-23T00:59:14;1.55;;;0.95;;
28760;SDS011;15917;50.014;8.352;2023-03-23T01:01:40;1.23;;;0.60;;
28760;SDS011;15917;50.014;8.352;2023-03-23T01:04:06;0.98;;;0.57;;
28760;SDS011;15917;50.014;8.352;2023-03-23T01:06:34;4.35;;;0.70;;
28760;SDS011;15917;50.014;8.352;2023-03-23T01:09:03;3.28;;;0.80;;
28760;SDS011;15917;50.014;8.352;2023-03-23T01:11:30;1.50;;;0.70;;
28760;SDS011;15917;50.014;8.352;2023-03-23T01:13:57;3.88;;;0.68;;
28760;SDS011;15917;50.014;8.352;2023-03-23T01:16:22;2.72;;;0.80;;
28760;SDS011;15917;50.014;8.352;2023-03-23T01:18:48;1.25;;;0.80;;
28760;SDS011;15917;50.014;8.352;2023-03-23T01:21:15;1.95;;;0.50;;
28760;SDS011;15917;50.014;8.352;2023-03-23T01:23:41;2.90;;;1.55;;
28760;SDS011;15917;50.014;8.352;2023-03-23T01:26:09;1.65;;;1.00;;
28760;SDS011;15917;50.014;8.352;2023-03-23T01:28:37;1.80;;;0.80;;
28760;SDS011;15917;50.014;8.352;2023-03-23T01:31:04;1.27;;;0.73;;
28760;SDS011;15917;50.014;8.352;2023-03-23T01:33:37;0.60;;;0.50;;
28760;SDS011;15917;50.014;8.352;2023-03-23T01:36:04;1.98;;;1.10;;
28760;SDS011;15917;50.014;8.352;2023-03-23T01:38:32;1.58;;;0.80;;
28760;SDS011;15917;50.014;8.352;2023-03-23T01:40:58;2.10;;;1.02;;
28760;SDS011;15917;50.014;8.352;2023-03-23T01:43:24;4.20;;;1.10;;
28760;SDS011;15917;50.014;8.352;2023-03-23T01:45:50;4.95;;;0.90;;
28760;SDS011;15917;50.014;8.352;2023-03-23T01:50:54;1.00;;;0.70;;
28760;SDS011;15917;50.014;8.352;2023-03-23T01:53:26;2.42;;;0.60;;
28760;SDS011;15917;50.014;8.352;2023-03-23T01:55:55;2.45;;;0.85;;
28760;SDS011;15917;50.014;8.352;2023-03-23T01:58:25;0.98;;;0.60;;
28760;SDS011;15917;50.014;8.352;2023-03-23T02:00:55;1.80;;;1.00;;
28760;SDS011;15917;50.014;8.352;2023-03-23T02:03:24;2.92;;;0.68;;
28760;SDS011;15917;50.014;8.352;2023-03-23T02:05:50;1.90;;;0.90;;
28760;SDS011;15917;50.014;8.352;2023-03-23T02:08:27;1.60;;;0.87;;
28760;SDS011;15917;50.014;8.352;2023-03-23T02:10:55;2.00;;;0.75;;
28760;SDS011;15917;50.014;8.352;2023-03-23T02:13:21;1.48;;;1.00;;
28760;SDS011;15917;50.014;8.352;2023-03-23T02:15:49;0.63;;;0.55;;
28760;SDS011;15917;50.014;8.352;2023-03-23T02:40:55;10.68;;;1.23;;
28760;SDS011;15917;50.014;8.352;2023-03-23T02:43:25;5.80;;;1.20;;
28760;SDS011;15917;50.014;8.352;2023-03-23T02:45:55;3.22;;;0.90;;
28760;SDS011;15917;50.014;8.352;2023-03-23T02:48:24;1.58;;;0.80;;
28760;SDS011;15917;50.014;8.352;2023-03-23T02:50:53;5.97;;;0.98;;
28760;SDS011;15917;50.014;8.352;2023-03-23T02:53:23;6.88;;;1.20;;
28760;SDS011;15917;50.014;8.352;2023-03-23T02:55:52;7.05;;;1.20;;
28760;SDS011;15917;50.014;8.352;2023-03-23T02:58:21;2.10;;;1.10;;
28760;SDS011;15917;50.014;8.352;2023-03-23T03:00:50;3.35;;;0.98;;
28760;SDS011;15917;50.014;8.352;2023-03-23T03:03:20;4.25;;;1.20;;
28760;SDS011;15917;50.014;8.352;2023-03-23T03:08:45;1.38;;;0.68;;
28760;SDS011;15917;50.014;8.352;2023-03-23T03:11:18;2.03;;;1.00;;
28760;SDS011;15917;50.014;8.352;2023-03-23T03:14:02;1.00;;;0.90;;
28760;SDS011;15917;50.014;8.352;2023-03-23T03:16:36;3.70;;;0.93;;
28760;SDS011;15917;50.014;8.352;2023-03-23T03:19:08;1.33;;;0.88;;
28760;SDS011;15917;50.014;8.352;2023-03-23T03:21:45;6.45;;;1.20;;
28760;SDS011;15917;50.014;8.352;2023-03-23T03:24:17;3.88;;;1.15;;
28760;SDS011;15917;50.014;8.352;2023-03-23T03:26:50;1.80;;;1.05;;
28760;SDS011;15917;50.014;8.352;2023-03-23T03:29:39;3.95;;;1.20;;
28760;SDS011;15917;50.014;8.352;2023-03-23T03:32:06;3.92;;;1.20;;
28760;SDS011;15917;50.014;8.352;2023-03-23T03:34:35;5.13;;;1.30;;
28760;SDS011;15917;50.014;8.352;2023-03-23T03:37:03;2.65;;;1.23;;
28760;SDS011;15917;50.014;8.352;2023-03-23T03:39:31;5.85;;;1.20;;
28760;SDS011;15917;50.014;8.352;2023-03-23T03:42:02;4.25;;;1.23;;
28760;SDS011;15917;50.014;8.352;2023-03-23T03:44:28;2.45;;;1.08;;
28760;SDS011;15917;50.014;8.352;2023-03-23T03:46:55;5.15;;;1.10;;
28760;SDS011;15917;50.014;8.352;2023-03-23T03:49:21;4.25;;;1.13;;
28760;SDS011;15917;50.014;8.352;2023-03-23T03:51:47;5.30;;;1.30;;
28760;SDS011;15917;50.014;8.352;2023-03-23T03:54:20;4.30;;;1.10;;
28760;SDS011;15917;50.014;8.352;2023-03-23T03:56:45;6.07;;;1.20;;
28760;SDS011;15917;50.014;8.352;2023-03-23T03:59:37;6.18;;;1.15;;
28760;SDS011;15917;50.014;8.352;2023-03-23T04:02:22;5.47;;;1.17;;
28760;SDS011;15917;50.014;8.352;2023-03-23T04:07:18;8.35;;;1.52;;
28760;SDS011;15917;50.014;8.352;2023-03-23T04:09:44;8.25;;;1.52;;
28760;SDS011;15917;50.014;8.352;2023-03-23T04:12:13;6.32;;;1.30;;
28760;SDS011;15917;50.014;8.352;2023-03-23T04:14:55;3.08;;;1.20;;
28760;SDS011;15917;50.014;8.352;2023-03-23T04:17:25;6.25;;;1.55;;
28760;SDS011;15917;50.014;8.352;2023-03-23T04:19:51;3.30;;;1.27;;
28760;SDS011;15917;50.014;8.352;2023-03-23T04:22:18;3.17;;;1.30;;
28760;SDS011;15917;50.014;8.352;2023-03-23T04:24:43;1.73;;;0.75;;
28760;SDS011;15917;50.014;8.352;2023-03-23T04:27:15;13.07;;;1.30;;
28760;SDS011;15917;50.014;8.352;2023-03-23T04:29:42;3.00;;;1.38;;
28760;SDS011;15917;50.014;8.352;2023-03-23T04:32:26;6.70;;;1.13;;
28760;SDS011;15917;50.014;8.352;2023-03-23T04:34:56;1.73;;;1.05;;
28760;SDS011;15917;50.014;8.352;2023-03-23T04:37:31;3.05;;;1.15;;
28760;SDS011;15917;50.014;8.352;2023-03-23T04:39:58;4.22;;;1.00;;
28760;SDS011;15917;50.014;8.352;2023-03-23T04:42:30;3.13;;;1.27;;
28760;SDS011;15917;50.014;8.352;2023-03-23T04:45:16;1.92;;;1.00;;
28760;SDS011;15917;50.014;8.352;2023-03-23T04:47:49;1.75;;;1.45;;
28760;SDS011;15917;50.014;8.352;2023-03-23T04:50:26;1.58;;;1.02;;
28760;SDS011;15917;50.014;8.352;2023-03-23T04:53:00;4.00;;;1.23;;
28760;SDS011;15917;50.014;8.352;2023-03-23T04:55:31;3.75;;;1.05;;
28760;SDS011;15917;50.014;8.352;2023-03-23T04:58:04;1.98;;;0.95;;
28760;SDS011;15917;50.014;8.352;2023-03-23T05:00:38;2.42;;;1.42;;
28760;SDS011;15917;50.014;8.352;2023-03-23T05:03:05;1.40;;;0.93;;
28760;SDS011;15917;50.014;8.352;2023-03-23T05:05:33;2.28;;;1.17;;
28760;SDS011;15917;50.014;8.352;2023-03-23T05:08:04;4.35;;;1.30;;
28760;SDS011;15917;50.014;8.352;2023-03-23T05:10:33;1.65;;;1.08;;
28760;SDS011;15917;50.014;8.352;2023-03-23T05:13:04;2.33;;;1.15;;
28760;SDS011;15917;50.014;8.352;2023-03-23T05:15:31;1.73;;;1.08;;
28760;SDS011;15917;50.014;8.352;2023-03-23T05:17:57;4.20;;;1.15;;
28760;SDS011;15917;50.014;8.352;2023-03-23T05:20:24;2.80;;;1.17;;
28760;SDS011;15917;50.014;8.352;2023-03-23T05:22:52;2.60;;;1.45;;
28760;SDS011;15917;50.014;8.352;2023-03-23T05:25:26;1.30;;;1.08;;
28760;SDS011;15917;50.014;8.352;2023-03-23T05:27:58;2.70;;;1.20;;
28760;SDS011;15917;50.014;8.352;2023-03-23T05:30:45;1.50;;;1.00;;
28760;SDS011;15917;50.014;8.352;2023-03-23T05:33:13;4.97;;;1.70;;
28760;SDS011;15917;50.014;8.352;2023-03-23T05:35:58;1.15;;;0.90;;
28760;SDS011;15917;50.014;8.352;2023-03-23T05:38:30;4.10;;;1.40;;
28760;SDS011;15917;50.014;8.352;2023-03-23T05:40:58;2.85;;;1.10;;
28760;SDS011;15917;50.014;8.352;2023-03-23T05:43:32;2.80;;;1.30;;
28760;SDS011;15917;50.014;8.352;2023-03-23T05:46:23;5.47;;;1.30;;
28760;SDS011;15917;50.014;8.352;2023-03-23T05:48:51;3.55;;;1.40;;
28760;SDS011;15917;50.014;8.352;2023-03-23T05:51:20;2.55;;;1.25;;
28760;SDS011;15917;50.014;8.352;2023-03-23T05:53:47;2.60;;;1.40;;
28760;SDS011;15917;50.014;8.352;2023-03-23T05:56:15;3.28;;;1.55;;
28760;SDS011;15917;50.014;8.352;2023-03-23T05:58:55;2.92;;;1.17;;
28760;SDS011;15917;50.014;8.352;2023-03-23T06:01:22;4.15;;;1.73;;
28760;SDS011;15917;50.014;8.352;2023-03-23T06:03:48;2.08;;;1.25;;
28760;SDS011;15917;50.014;8.352;2023-03-23T06:06:20;4.75;;;1.10;;
28760;SDS011;15917;50.014;8.352;2023-03-23T06:08:53;3.55;;;1.48;;
28760;SDS011;15917;50.014;8.352;2023-03-23T06:11:30;4.07;;;1.23;;
28760;SDS011;15917;50.014;8.352;2023-03-23T06:14:18;3.10;;;1.48;;
28760;SDS011;15917;50.014;8.352;2023-03-23T06:16:45;2.00;;;1.10;;
28760;SDS011;15917;50.014;8.352;2023-03-23T06:19:13;1.90;;;1.10;;
28760;SDS011;15917;50.014;8.352;2023-03-23T06:21:48;3.63;;;2.05;;
28760;SDS011;15917;50.014;8.352;2023-03-23T06:24:23;2.55;;;1.40;;
28760;SDS011;15917;50.014;8.352;2023-03-23T06:26:49;2.45;;;1.40;;
28760;SDS011;15917;50.014;8.352;2023-03-23T06:29:18;2.03;;;1.20;;
28760;SDS011;15917;50.014;8.352;2023-03-23T06:31:48;3.30;;;1.10;;
28760;SDS011;15917;50.014;8.352;2023-03-23T06:34:20;1.92;;;1.35;;
28760;SDS011;15917;50.014;8.352;2023-03-23T06:37:06;2.45;;;1.27;;
28760;SDS011;15917;50.014;8.352;2023-03-23T06:39:41;3.42;;;1.30;;
28760;SDS011;15917;50.014;8.352;2023-03-23T06:42:17;2.10;;;1.50;;
28760;SDS011;15917;50.014;8.352;2023-03-23T06:44:48;4.35;;;1.85;;
28760;SDS011;15917;50.014;8.352;2023-03-23T06:47:14;4.28;;;1.15;;
28760;SDS011;15917;50.014;8.352;2023-03-23T06:49:45;2.90;;;1.50;;
28760;SDS011;15917;50.014;8.352;2023-03-23T06:52:19;6.53;;;1.63;;
28760;SDS011;15917;50.014;8.352;2023-03-23T06:54:47;4.80;;;1.58;;
28760;SDS011;15917;50.014;8.352;2023-03-23T06:57:13;2.97;;;1.52;;
28760;SDS011;15917;50.014;8.352;2023-03-23T06:59:38;8.55;;;1.45;;
28760;SDS011;15917;50.014;8.352;2023-03-23T07:02:05;3.20;;;1.67;;
28760;SDS011;15917;50.014;8.352;2023-03-23T07:04:34;2.60;;;1.80;;
28760;SDS011;15917;50.014;8.352;2023-03-23T07:07:07;6.07;;;1.90;;
28760;SDS011;15917;50.014;8.352;2023-03-23T07:09:42;3.75;;;1.73;;
28760;SDS011;15917;50.014;8.352;2023-03-23T07:12:08;5.80;;;1.70;;
28760;SDS011;15917;50.014;8.352;2023-03-23T07:14:40;7.97;;;2.10;;
28760;SDS011;15917;50.014;8.352;2023-03-23T07:17:06;6.68;;;1.95;;
28760;SDS011;15917;50.014;8.352;2023-03-23T07:19:35;6.35;;;1.77;;
28760;SDS011;15917;50.014;8.352;2023-03-23T07:22:01;8.43;;;1.67;;
28760;SDS011;15917;50.014;8.352;2023-03-23T07:24:29;7.65;;;2.00;;
28760;SDS011;15917;50.014;8.352;2023-03-23T07:27:17;9.60;;;3.47;;
28760;SDS011;15917;50.014;8.352;2023-03-23T07:29:44;9.35;;;3.00;;
28760;SDS011;15917;50.014;8.352;2023-03-23T07:32:17;16.45;;;3.25;;
28760;SDS011;15917;50.014;8.352;2023-03-23T07:34:42;8.55;;;3.28;;
28760;SDS011;15917;50.014;8.352;2023-03-23T07:37:16;7.00;;;2.17;;
28760;SDS011;15917;50.014;8.352;2023-03-23T07:39:46;10.85;;;4.93;;
28760;SDS011;15917;50.014;8.352;2023-03-23T07:42:12;10.85;;;4.47;;
28760;SDS011;15917;50.014;8.352;2023-03-23T07:44:46;6.43;;;2.75;;
28760;SDS011;15917;50.014;8.352;2023-03-23T07:47:13;4.75;;;2.65;;
28760;SDS011;15917;50.014;8.352;2023-03-23T07:49:38;3.83;;;1.88;;
28760;SDS011;15917;50.014;8.352;2023-03-23T07:52:18;5.43;;;2.65;;
28760;SDS011;15917;50.014;8.352;2023-03-23T07:54:44;4.53;;;2.10;;
28760;SDS011;15917;50.014;8.352;2023-03-23T07:57:17;5.30;;;1.92;;
28760;SDS011;15917;50.014;8.352;2023-03-23T07:59:49;5.78;;;2.60;;
28760;SDS011;15917;50.014;8.352;2023-03-23T08:02:15;6.88;;;2.70;;
28760;SDS011;15917;50.014;8.352;2023-03-23T08:04:51;4.57;;;2.83;;
28760;SDS011;15917;50.014;8.352;2023-03-23T08:07:37;10.73;;;2.65;;
28760;SDS011;15917;50.014;8.352;2023-03-23T08:10:38;15.18;;;4.43;;
28760;SDS011;15917;50.014;8.352;2023-03-23T08:13:41;9.10;;;3.22;;
28760;SDS011;15917;50.014;8.352;2023-03-23T08:16:26;4.57;;;2.67;;
28760;SDS011;15917;50.014;8.352;2023-03-23T08:19:05;4.85;;;2.30;;
28760;SDS011;15917;50.014;8.352;2023-03-23T08:21:50;7.32;;;2.13;;
28760;SDS011;15917;50.014;8.352;2023-03-23T08:24:25;5.22;;;1.75;;
28760;SDS011;15917;50.014;8.352;2023-03-23T08:26:59;7.30;;;3.25;;
28760;SDS011;15917;50.014;8.352;2023-03-23T08:29:37;6.47;;;2.40;;
28760;SDS011;15917;50.014;8.352;2023-03-23T08:32:28;5.15;;;2.05;;
28760;SDS011;15917;50.014;8.352;2023-03-23T08:35:18;8.45;;;2.97;;
28760;SDS011;15917;50.014;8.352;2023-03-23T08:38:03;6.95;;;2.00;;
28760;SDS011;15917;50.014;8.352;2023-03-23T08:40:47;6.78;;;2.00;;
28760;SDS011;15917;50.014;8.352;2023-03-23T08:43:29;15.73;;;3.00;;
28760;SDS011;15917;50.014;8.352;2023-03-23T08:46:15;8.23;;;2.75;;
28760;SDS011;15917;50.014;8.352;2023-03-23T08:49:06;7.70;;;2.00;;
28760;SDS011;15917;50.014;8.352;2023-03-23T08:51:51;10.93;;;2.78;;
28760;SDS011;15917;50.014;8.352;2023-03-23T08:54:49;3.88;;;2.42;;
28760;SDS011;15917;50.014;8.352;2023-03-23T08:57:37;2.80;;;1.55;;
28760;SDS011;15917;50.014;8.352;2023-03-23T09:00:30;8.55;;;2.90;;
28760;SDS011;15917;50.014;8.352;2023-03-23T09:03:10;6.55;;;2.10;;
28760;SDS011;15917;50.014;8.352;2023-03-23T09:05:58;4.30;;;1.92;;
28760;SDS011;15917;50.014;8.352;2023-03-23T09:08:45;7.30;;;3.05;;
28760;SDS011;15917;50.014;8.352;2023-03-23T09:11:11;8.27;;;2.75;;
28760;SDS011;15917;50.014;8.352;2023-03-23T09:13:37;12.50;;;3.08;;
28760;SDS011;15917;50.014;8.352;2023-03-23T09:16:05;4.80;;;2.25;;
28760;SDS011;15917;50.014;8.352;2023-03-23T09:18:31;11.33;;;2.60;;
28760;SDS011;15917;50.014;8.352;2023-03-23T09:20:58;7.07;;;2.30;;
28760;SDS011;15917;50.014;8.352;2023-03-23T09:23:25;9.07;;;2.95;;
28760;SDS011;15917;50.014;8.352;2023-03-23T09:25:51;2.83;;;1.67;;
28760;SDS011;15917;50.014;8.352;2023-03-23T09:28:17;3.55;;;1.90;;
28760;SDS011;15917;50.014;8.352;2023-03-23T09:30:43;2.00;;;1.10;;
28760;SDS011;15917;50.014;8.352;2023-03-23T09:33:10;3.15;;;1.40;;
28760;SDS011;15917;50.014;8.352;2023-03-23T09:35:36;1.60;;;1.10;;
28760;SDS011;15917;50.014;8.352;2023-03-23T09:38:04;2.60;;;1.42;;
28760;SDS011;15917;50.014;8.352;2023-03-23T09:40:33;3.70;;;1.23;;
28760;SDS011;15917;50.014;8.352;2023-03-23T09:43:07;3.17;;;1.00;;
28760;SDS011;15917;50.014;8.352;2023-03-23T09:51:17;2.10;;;1.20;;
28760;SDS011;15917;50.014;8.352;2023-03-23T09:53:51;6.22;;;1.30;;
28760;SDS011;15917;50.014;8.352;2023-03-23T09:56:20;2.00;;;1.30;;
28760;SDS011;15917;50.014;8.352;2023-03-23T10:04:56;2.15;;;1.23;;
28760;SDS011;15917;50.014;8.352;2023-03-23T10:07:32;7.93;;;1.15;;
28760;SDS011;15917;50.014;8.352;2023-03-23T10:10:00;8.38;;;1.40;;
28760;SDS011;15917;50.014;8.352;2023-03-23T10:12:36;2.63;;;1.00;;
28760;SDS011;15917;50.014;8.352;2023-03-23T10:15:11;3.03;;;1.05;;
28760;SDS011;15917;50.014;8.352;2023-03-23T10:20:26;6.30;;;1.75;;
28760;SDS011;15917;50.014;8.352;2023-03-23T10:26:08;2.72;;;1.17;;
28760;SDS011;15917;50.014;8.352;2023-03-23T10:28:54;3.67;;;1.55;;
28760;SDS011;15917;50.014;8.352;2023-03-23T10:31:24;1.98;;;1.45;;
28760;SDS011;15917;50.014;8.352;2023-03-23T10:33:57;1.05;;;0.85;;
28760;SDS011;15917;50.014;8.352;2023-03-23T10:36:36;6.03;;;1.85;;
28760;SDS011;15917;50.014;8.352;2023-03-23T10:39:08;6.07;;;1.58;;
28760;SDS011;15917;50.014;8.352;2023-03-23T10:41:38;2.50;;;1.58;;
28760;SDS011;15917;50.014;8.352;2023-03-23T10:44:09;2.67;;;1.38;;
28760;SDS011;15917;50.014;8.352;2023-03-23T10:49:34;2.30;;;1.10;;
28760;SDS011;15917;50.014;8.352;2023-03-23T10:52:18;4.70;;;1.23;;
28760;SDS011;15917;50.014;8.352;2023-03-23T10:55:05;2.50;;;1.10;;
28760;SDS011;15917;50.014;8.352;2023-03-23T10:57:35;2.33;;;1.40;;
28760;SDS011;15917;50.014;8.352;2023-03-23T11:00:07;4.07;;;1.08;;
28760;SDS011;15917;50.014;8.352;2023-03-23T11:02:43;4.57;;;1.42;;
28760;SDS011;15917;50.014;8.352;2023-03-23T11:05:22;5.03;;;1.30;;
28760;SDS011;15917;50.014;8.352;2023-03-23T11:07:56;7.32;;;1.98;;
28760;SDS011;15917;50.014;8.352;2023-03-23T11:10:25;5.25;;;1.85;;
28760;SDS011;15917;50.014;8.352;2023-03-23T11:12:57;3.22;;;1.38;;
28760;SDS011;15917;50.014;8.352;2023-03-23T11:15:25;2.97;;;0.95;;
28760;SDS011;15917;50.014;8.352;2023-03-23T11:18:02;3.83;;;1.40;;
28760;SDS011;15917;50.014;8.352;2023-03-23T11:20:32;1.77;;;1.23;;
28760;SDS011;15917;50.014;8.352;2023-03-23T11:23:48;2.97;;;1.38;;
28760;SDS011;15917;50.014;8.352;2023-03-23T11:28:48;3.35;;;1.33;;
28760;SDS011;15917;50.014;8.352;2023-03-23T11:31:22;4.43;;;1.30;;
28760;SDS011;15917;50.014;8.352;2023-03-23T11:33:53;5.38;;;1.70;;
28760;SDS011;15917;50.014;8.352;2023-03-23T11:36:40;7.75;;;3.65;;
28760;SDS011;15917;50.014;8.352;2023-03-23T11:39:27;4.03;;;1.55;;
28760;SDS011;15917;50.014;8.352;2023-03-23T11:41:59;1.60;;;0.90;;
28760;SDS011;15917;50.014;8.352;2023-03-23T11:45:18;3.25;;;1.20;;
28760;SDS011;15917;50.014;8.352;2023-03-23T11:50:30;1.95;;;0.98;;
28760;SDS011;15917;50.014;8.352;2023-03-23T11:53:23;1.83;;;0.80;;
28760;SDS011;15917;50.014;8.352;2023-03-23T11:56:14;1.63;;;1.05;;
28760;SDS011;15917;50.014;8.352;2023-03-23T11:58:49;1.30;;;0.60;;
28760;SDS011;15917;50.014;8.352;2023-03-23T12:01:21;4.05;;;1.40;;
28760;SDS011;15917;50.014;8.352;2023-03-23T12:04:13;6.75;;;0.82;;
28760;SDS011;15917;50.014;8.352;2023-03-23T12:15:14;5.35;;;1.08;;
28760;SDS011;15917;50.014;8.352;2023-03-23T12:20:27;6.60;;;1.70;;
28760;SDS011;15917;50.014;8.352;2023-03-23T12:28:33;3.38;;;1.27;;
28760;SDS011;15917;50.014;8.352;2023-03-23T12:31:26;2.08;;;0.90;;
28760;SDS011;15917;50.014;8.352;2023-03-23T12:36:57;4.13;;;1.23;;
28760;SDS011;15917;50.014;8.352;2023-03-23T12:42:18;3.40;;;0.90;;
28760;SDS011;15917;50.014;8.352;2023-03-23T12:47:39;5.60;;;1.25;;
28760;SDS011;15917;50.014;8.352;2023-03-23T12:58:11;2.90;;;0.82;;
28760;SDS011;15917;50.014;8.352;2023-03-23T13:01:00;2.90;;;0.80;;
28760;SDS011;15917;50.014;8.352;2023-03-23T13:03:42;0.50;;;0.50;;
28760;SDS011;15917;50.014;8.352;2023-03-23T13:06:35;2.33;;;0.98;;
28760;SDS011;15917;50.014;8.352;2023-03-23T13:09:05;1.40;;;0.50;;
28760;SDS011;15917;50.014;8.352;2023-03-23T13:11:51;1.70;;;1.10;;
28760;SDS011;15917;50.014;8.352;2023-03-23T13:22:58;1.77;;;0.80;;
28760;SDS011;15917;50.014;8.352;2023-03-23T13:28:31;4.35;;;0.80;;
28760;SDS011;15917;50.014;8.352;2023-03-23T13:34:01;3.63;;;0.98;;
28760;SDS011;15917;50.014;8.352;2023-03-23T13:37:02;1.27;;;0.70;;
28760;SDS011;15917;50.014;8.352;2023-03-23T13:39:33;2.05;;;0.80;;
28760;SDS011;15917;50.014;8.352;2023-03-23T13:52:18;1.45;;;0.80;;
28760;SDS011;15917;50.014;8.352;2023-03-23T13:54:50;1.48;;;0.90;;
28760;SDS011;15917;50.014;8.352;2023-03-23T14:00:24;0.98;;;0.73;;
28760;SDS011;15917;50.014;8.352;2023-03-23T14:02:51;9.57;;;1.05;;
28760;SDS011;15917;50.014;8.352;2023-03-23T14:05:32;5.45;;;1.70;;
28760;SDS011;15917;50.014;8.352;2023-03-23T14:08:22;5.85;;;1.70;;
28760;SDS011;15917;50.014;8.352;2023-03-23T14:11:02;6.63;;;2.88;;
28760;SDS011;15917;50.014;8.352;2023-03-23T14:16:22;1.30;;;0.90;;
28760;SDS011;15917;50.014;8.352;2023-03-23T14:18:59;2.63;;;1.17;;
28760;SDS011;15917;50.014;8.352;2023-03-23T14:22:15;3.72;;;1.40;;
28760;SDS011;15917;50.014;8.352;2023-03-23T14:24:26;2.75;;;0.93;;
28760;SDS011;15917;50.014;8.352;2023-03-23T14:27:01;3.80;;;1.05;;
28760;SDS011;15917;50.014;8.352;2023-03-23T14:29:34;4.85;;;1.05;;
28760;SDS011;15917;50.014;8.352;2023-03-23T14:32:00;15.90;;;5.03;;
28760;SDS011;15917;50.014;8.352;2023-03-23T14:34:28;2.22;;;1.10;;
28760;SDS011;15917;50.014;8.352;2023-03-23T14:36:56;3.58;;;1.75;;
28760;SDS011;15917;50.014;8.352;2023-03-23T14:39:27;6.10;;;2.45;;
28760;SDS011;15917;50.014;8.352;2023-03-23T14:42:28;4.13;;;1.80;;
28760;SDS011;15917;50.014;8.352;2023-03-23T14:44:49;3.55;;;1.90;;
28760;SDS011;15917;50.014;8.352;2023-03-23T14:47:18;5.60;;;2.03;;
28760;SDS011;15917;50.014;8.352;2023-03-23T14:49:57;5.97;;;1.10;;
28760;SDS011;15917;50.014;8.352;2023-03-23T14:52:25;3.65;;;0.80;;
28760;SDS011;15917;50.014;8.352;2023-03-23T14:54:53;1.17;;;1.00;;
28760;SDS011;15917;50.014;8.352;2023-03-23T14:57:26;1.08;;;0.75;;
28760;SDS011;15917;50.014;8.352;2023-03-23T14:59:53;1.85;;;0.95;;
28760;SDS011;15917;50.014;8.352;2023-03-23T15:02:23;1.38;;;0.95;;
28760;SDS011;15917;50.014;8.352;2023-03-23T15:04:54;1.88;;;1.13;;
28760;SDS011;15917;50.014;8.352;2023-03-23T15:07:26;4.25;;;1.10;;
28760;SDS011;15917;50.014;8.352;2023-03-23T15:09:56;2.28;;;0.90;;
28760;SDS011;15917;50.014;8.352;2023-03-23T15:12:23;1.85;;;1.05;;
28760;SDS011;15917;50.014;8.352;2023-03-23T15:14:58;2.38;;;0.85;;
28760;SDS011;15917;50.014;8.352;2023-03-23T15:17:27;1.75;;;1.05;;
28760;SDS011;15917;50.014;8.352;2023-03-23T15:19:56;1.80;;;1.20;;
28760;SDS011;15917;50.014;8.352;2023-03-23T15:24:51;2.47;;;0.88;;
28760;SDS011;15917;50.014;8.352;2023-03-23T15:27:27;1.35;;;0.65;;
28760;SDS011;15917;50.014;8.352;2023-03-23T15:30:45;1.20;;;0.77;;
28760;SDS011;15917;50.014;8.352;2023-03-23T15:32:53;1.80;;;0.82;;
28760;SDS011;15917;50.014;8.352;2023-03-23T15:35:24;2.22;;;0.80;;
28760;SDS011;15917;50.014;8.352;2023-03-23T15:38:03;1.38;;;0.70;;
28760;SDS011;15917;50.014;8.352;2023-03-23T15:40:43;0.60;;;0.60;;
28760;SDS011;15917;50.014;8.352;2023-03-23T15:43:17;2.35;;;0.63;;
28760;SDS011;15917;50.014;8.352;2023-03-23T15:45:57;1.52;;;0.63;;
28760;SDS011;15917;50.014;8.352;2023-03-23T15:48:28;1.30;;;0.70;;
28760;SDS011;15917;50.014;8.352;2023-03-23T15:51:15;2.78;;;0.80;;
28760;SDS011;15917;50.014;8.352;2023-03-23T15:53:41;1.42;;;0.82;;
28760;SDS011;15917;50.014;8.352;2023-03-23T15:56:09;1.30;;;1.20;;
28760;SDS011;15917;50.014;8.352;2023-03-23T15:58:36;5.30;;;0.80;;
28760;SDS011;15917;50.014;8.352;2023-03-23T16:01:05;2.65;;;0.70;;
28760;SDS011;15917;50.014;8.352;2023-03-23T16:03:40;1.27;;;0.70;;
28760;SDS011;15917;50.014;8.352;2023-03-23T16:06:11;4.40;;;1.65;;
28760;SDS011;15917;50.014;8.352;2023-03-23T16:11:14;5.50;;;1.60;;
28760;SDS011;15917;50.014;8.352;2023-03-23T16:13:42;4.28;;;1.40;;
28760;SDS011;15917;50.014;8.352;2023-03-23T16:16:13;3.70;;;1.58;;
28760;SDS011;15917;50.014;8.352;2023-03-23T16:18:44;2.58;;;0.95;;
28760;SDS011;15917;50.014;8.352;2023-03-23T16:21:09;2.45;;;1.25;;
28760;SDS011;15917;50.014;8.352;2023-03-23T16:23:35;4.00;;;1.10;;
28760;SDS011;15917;50.014;8.352;2023-03-23T16:26:01;1.65;;;1.10;;
28760;SDS011;15917;50.014;8.352;2023-03-23T16:28:26;2.40;;;1.00;;
28760;SDS011;15917;50.014;8.352;2023-03-23T16:30:52;4.05;;;1.40;;
28760;SDS011;15917;50.014;8.352;2023-03-23T16:33:17;3.42;;;1.42;;
28760;SDS011;15917;50.014;8.352;2023-03-23T16:35:43;5.72;;;1.25;;
28760;SDS011;15917;50.014;8.352;2023-03-23T16:38:11;3.15;;;1.20;;
28760;SDS011;15917;50.014;8.352;2023-03-23T16:40:38;3.72;;;1.35;;
28760;SDS011;15917;50.014;8.352;2023-03-23T16:43:05;2.92;;;1.35;;
28760;SDS011;15917;50.014;8.352;2023-03-23T16:45:30;5.25;;;1.60;;
28760;SDS011;15917;50.014;8.352;2023-03-23T16:47:56;5.05;;;1.58;;
28760;SDS011;15917;50.014;8.352;2023-03-23T16:50:26;5.10;;;1.63;;
28760;SDS011;15917;50.014;8.352;2023-03-23T16:52:54;3.95;;;1.95;;
28760;SDS011;15917;50.014;8.352;2023-03-23T16:55:20;4.32;;;2.22;;
28760;SDS011;15917;50.014;8.352;2023-03-23T16:57:46;3.72;;;1.80;;
28760;SDS011;15917;50.014;8.352;2023-03-23T17:00:16;3.40;;;1.70;;
28760;SDS011;15917;50.014;8.352;2023-03-23T17:02:46;6.28;;;1.83;;
28760;SDS011;15917;50.014;8.352;2023-03-23T17:05:16;3.22;;;2.05;;
28760;SDS011;15917;50.014;8.352;2023-03-23T17:10:09;5.10;;;1.40;;
28760;SDS011;15917;50.014;8.352;2023-03-23T17:12:39;4.65;;;1.98;;
28760;SDS011;15917;50.014;8.352;2023-03-23T17:15:06;5.03;;;1.67;;
28760;SDS011;15917;50.014;8.352;2023-03-23T17:17:33;3.60;;;2.15;;
28760;SDS011;15917;50.014;8.352;2023-03-23T17:19:59;5.35;;;1.23;;
28760;SDS011;15917;50.014;8.352;2023-03-23T17:22:25;2.30;;;1.70;;
28760;SDS011;15917;50.014;8.352;2023-03-23T17:24:53;3.53;;;1.73;;
28760;SDS011;15917;50.014;8.352;2023-03-23T17:27:21;6.30;;;2.42;;
28760;SDS011;15917;50.014;8.352;2023-03-23T17:29:47;5.05;;;2.50;;
28760;SDS011;15917;50.014;8.352;2023-03-23T17:32:13;2.70;;;1.63;;
28760;SDS011;15917;50.014;8.352;2023-03-23T17:34:39;3.97;;;1.90;;